メインページ
METAR-TAF:

METAR-TAF

空港 :

Wanaham

リフー島, ニューカレドニア

緯度: 20-46S, 経度: 167-14E, 海抜: 28m

METAR: 見つかりません

時間: 02:06 (15:06 UTC)

予報

当レポートは4時間6分前の11:00(UTC)に作成
予報は18日の 12時(UTC)から 19日の 12時(UTC)まで有効
の風 8kt
視程10km以上
高度2500ftの雲はほとんどない
高度7000ftの千切れ雲あり
確率 30% :
18日の 12時(UTC)から 18日の 22時(UTC)まで一時的に
視程: 4000m
高度1400ftの千切れ雲あり
雨, 霧雨

TAF: NWWL 181100Z 1812/1912 10008KT 9999 FEW025 BKN070 PROB30 TEMPO 1812/1822 4000 RADZ BKN014

4,000以上の空港の気象観測と天気予報(METAR報とTAF報)

利用可能な観測所は地図上に黄色い丸と赤い丸で示す。

丸の上にカーソルを重ねると観測所名を参照できる。

次にクリックすると気象観測と天気予報を参照できる。

マップの切り替え:黒色「×」印の緑ボタンをクリックして拡大、「-」印の緑ボタンをクリックして縮小、緑色の三角印をクリックして隣りの地図に切り替え


METAR-TAF: